Terminal Aerodrome Forecast
Issued by NWS Binghamton, NY

Home | Current Version | Previous Version | Text Only | Print | Product List | Glossary On
Versions: 1 2 3 4 5 6 7 8 9 10 11 12 13 14 15 16 17 18 19
000
FTUS41 KBGM 161741
TAFBGM
TAF
KBGM 161741Z 1618/1718 21005KT 1 1/2SM -SN SCT007 OVC012
     FM162200 VRB04KT 3/4SM -SN OVC007
     FM170600 26005KT 3SM -SN OVC007
     FM171000 30008KT P6SM OVC015=

USA.gov is the U.S. government's official web portal to all federal, state and local government web resources and services.